sensor_id;sensor_type;location;lat;lon;timestamp;P1;durP1;ratioP1;P2;durP2;ratioP2
58966;SDS011;44744;51.894;5.080;2023-05-07T11:12:47;9.10;;;7.30;;
58966;SDS011;44744;51.894;5.080;2023-05-07T11:13:48;7.20;;;6.40;;
58966;SDS011;44744;51.894;5.080;2023-05-07T11:14:49;9.50;;;6.10;;
58966;SDS011;44744;51.894;5.080;2023-05-07T11:15:50;8.00;;;6.40;;
58966;SDS011;44744;51.894;5.080;2023-05-07T11:16:52;8.20;;;7.20;;
58966;SDS011;44744;51.894;5.080;2023-05-07T11:18:02;10.20;;;7.90;;
58966;SDS011;44744;51.894;5.080;2023-05-07T11:19:03;9.80;;;8.70;;
58966;SDS011;44744;51.894;5.080;2023-05-07T11:20:04;9.70;;;7.40;;
58966;SDS011;44744;51.894;5.080;2023-05-07T11:21:05;7.10;;;5.80;;
58966;SDS011;44744;51.894;5.080;2023-05-07T11:22:06;7.10;;;5.20;;
58966;SDS011;44744;51.894;5.080;2023-05-07T11:24:39;8.90;;;5.50;;
58966;SDS011;44744;51.894;5.080;2023-05-07T11:25:42;8.50;;;5.70;;
58966;SDS011;44744;51.894;5.080;2023-05-07T11:26:43;7.60;;;6.80;;
58966;SDS011;44744;51.894;5.080;2023-05-07T11:27:53;8.40;;;6.80;;
58966;SDS011;44744;51.894;5.080;2023-05-07T11:28:54;11.90;;;6.40;;
58966;SDS011;44744;51.894;5.080;2023-05-07T11:29:54;7.30;;;6.40;;
58966;SDS011;44744;51.894;5.080;2023-05-07T11:30:56;9.10;;;6.40;;
58966;SDS011;44744;51.894;5.080;2023-05-07T11:31:57;9.20;;;6.60;;
58966;SDS011;44744;51.894;5.080;2023-05-07T11:32:57;7.30;;;6.20;;
58966;SDS011;44744;51.894;5.080;2023-05-07T11:33:58;9.90;;;6.20;;
58966;SDS011;44744;51.894;5.080;2023-05-07T11:34:59;9.80;;;6.50;;
58966;SDS011;44744;51.894;5.080;2023-05-07T11:36:01;7.30;;;6.60;;
58966;SDS011;44744;51.894;5.080;2023-05-07T11:37:04;9.30;;;6.30;;
58966;SDS011;44744;51.894;5.080;2023-05-07T11:38:05;8.90;;;6.50;;
58966;SDS011;44744;51.894;5.080;2023-05-07T11:39:06;7.60;;;6.80;;
58966;SDS011;44744;51.894;5.080;2023-05-07T11:40:26;8.30;;;6.80;;
58966;SDS011;44744;51.894;5.080;2023-05-07T11:41:33;8.80;;;6.70;;
58966;SDS011;44744;51.894;5.080;2023-05-07T11:42:36;8.90;;;6.60;;
58966;SDS011;44744;51.894;5.080;2023-05-07T11:43:37;9.90;;;7.00;;
58966;SDS011;44744;51.894;5.080;2023-05-07T11:44:43;8.60;;;6.50;;
58966;SDS011;44744;51.894;5.080;2023-05-07T11:45:45;9.40;;;6.40;;
58966;SDS011;44744;51.894;5.080;2023-05-07T11:46:45;7.50;;;6.20;;
58966;SDS011;44744;51.894;5.080;2023-05-07T11:47:46;8.50;;;5.40;;
58966;SDS011;44744;51.894;5.080;2023-05-07T11:48:46;8.00;;;4.80;;
58966;SDS011;44744;51.894;5.080;2023-05-07T11:49:48;6.30;;;4.10;;
58966;SDS011;44744;51.894;5.080;2023-05-07T11:51:53;6.30;;;4.50;;
58966;SDS011;44744;51.894;5.080;2023-05-07T11:52:53;10.90;;;5.20;;
58966;SDS011;44744;51.894;5.080;2023-05-07T11:53:53;7.70;;;4.70;;
58966;SDS011;44744;51.894;5.080;2023-05-07T11:54:57;7.90;;;4.80;;
58966;SDS011;44744;51.894;5.080;2023-05-07T11:55:58;6.70;;;5.10;;
58966;SDS011;44744;51.894;5.080;2023-05-07T11:56:58;5.50;;;4.80;;
58966;SDS011;44744;51.894;5.080;2023-05-07T11:57:58;6.00;;;3.70;;
58966;SDS011;44744;51.894;5.080;2023-05-07T11:58:59;6.00;;;3.70;;
58966;SDS011;44744;51.894;5.080;2023-05-07T11:59:59;5.50;;;3.70;;
58966;SDS011;44744;51.894;5.080;2023-05-07T12:01:01;7.30;;;3.50;;
58966;SDS011;44744;51.894;5.080;2023-05-07T12:02:01;6.70;;;4.10;;
58966;SDS011;44744;51.894;5.080;2023-05-07T12:03:04;7.60;;;4.30;;
58966;SDS011;44744;51.894;5.080;2023-05-07T12:04:05;5.80;;;3.60;;
58966;SDS011;44744;51.894;5.080;2023-05-07T12:05:08;5.30;;;3.50;;
58966;SDS011;44744;51.894;5.080;2023-05-07T12:06:09;6.80;;;4.50;;
58966;SDS011;44744;51.894;5.080;2023-05-07T12:07:16;5.10;;;4.20;;
58966;SDS011;44744;51.894;5.080;2023-05-07T12:08:22;6.80;;;4.80;;
58966;SDS011;44744;51.894;5.080;2023-05-07T12:09:22;5.60;;;4.20;;
58966;SDS011;44744;51.894;5.080;2023-05-07T12:10:25;9.80;;;4.70;;
58966;SDS011;44744;51.894;5.080;2023-05-07T12:11:31;6.00;;;4.20;;
58966;SDS011;44744;51.894;5.080;2023-05-07T12:12:58;5.90;;;3.90;;
58966;SDS011;44744;51.894;5.080;2023-05-07T12:13:58;7.00;;;3.80;;
58966;SDS011;44744;51.894;5.080;2023-05-07T12:14:59;6.40;;;5.00;;
58966;SDS011;44744;51.894;5.080;2023-05-07T12:15:59;9.50;;;5.10;;
58966;SDS011;44744;51.894;5.080;2023-05-07T12:17:04;6.90;;;5.50;;
58966;SDS011;44744;51.894;5.080;2023-05-07T12:18:05;10.40;;;5.10;;
58966;SDS011;44744;51.894;5.080;2023-05-07T12:19:07;7.20;;;4.90;;
58966;SDS011;44744;51.894;5.080;2023-05-07T12:21:09;11.40;;;5.10;;
58966;SDS011;44744;51.894;5.080;2023-05-07T12:22:10;7.20;;;5.30;;
58966;SDS011;44744;51.894;5.080;2023-05-07T12:23:11;8.90;;;5.20;;
58966;SDS011;44744;51.894;5.080;2023-05-07T12:24:14;7.20;;;4.90;;
58966;SDS011;44744;51.894;5.080;2023-05-07T12:25:16;8.60;;;4.50;;
58966;SDS011;44744;51.894;5.080;2023-05-07T12:26:19;7.70;;;5.00;;
58966;SDS011;44744;51.894;5.080;2023-05-07T12:27:19;7.30;;;5.30;;
58966;SDS011;44744;51.894;5.080;2023-05-07T12:28:20;6.10;;;5.10;;
58966;SDS011;44744;51.894;5.080;2023-05-07T12:29:23;7.20;;;5.30;;
58966;SDS011;44744;51.894;5.080;2023-05-07T12:30:44;7.30;;;4.80;;
58966;SDS011;44744;51.894;5.080;2023-05-07T12:31:44;7.30;;;4.40;;
58966;SDS011;44744;51.894;5.080;2023-05-07T12:32:45;7.20;;;4.30;;
58966;SDS011;44744;51.894;5.080;2023-05-07T12:33:45;6.50;;;4.30;;
58966;SDS011;44744;51.894;5.080;2023-05-07T12:34:49;8.90;;;4.50;;
58966;SDS011;44744;51.894;5.080;2023-05-07T12:35:52;7.20;;;4.00;;
58966;SDS011;44744;51.894;5.080;2023-05-07T12:36:53;4.90;;;3.10;;
58966;SDS011;44744;51.894;5.080;2023-05-07T12:37:54;5.90;;;3.50;;
58966;SDS011;44744;51.894;5.080;2023-05-07T12:38:55;5.40;;;4.00;;
58966;SDS011;44744;51.894;5.080;2023-05-07T12:40:10;6.40;;;4.10;;
58966;SDS011;44744;51.894;5.080;2023-05-07T12:41:56;7.10;;;3.90;;
58966;SDS011;44744;51.894;5.080;2023-05-07T12:44:59;5.00;;;3.50;;
58966;SDS011;44744;51.894;5.080;2023-05-07T12:46:21;5.10;;;3.70;;
58966;SDS011;44744;51.894;5.080;2023-05-07T12:47:35;5.60;;;3.50;;
58966;SDS011;44744;51.894;5.080;2023-05-07T12:48:38;6.10;;;3.50;;
58966;SDS011;44744;51.894;5.080;2023-05-07T12:49:43;6.20;;;3.80;;
58966;SDS011;44744;51.894;5.080;2023-05-07T12:50:44;5.90;;;3.60;;
58966;SDS011;44744;51.894;5.080;2023-05-07T12:51:46;6.00;;;3.10;;
58966;SDS011;44744;51.894;5.080;2023-05-07T12:52:48;6.60;;;3.10;;
58966;SDS011;44744;51.894;5.080;2023-05-07T12:53:49;5.50;;;2.90;;
58966;SDS011;44744;51.894;5.080;2023-05-07T12:54:49;7.90;;;3.30;;
58966;SDS011;44744;51.894;5.080;2023-05-07T12:55:51;5.20;;;2.70;;
58966;SDS011;44744;51.894;5.080;2023-05-07T12:56:59;6.80;;;4.10;;
58966;SDS011;44744;51.894;5.080;2023-05-07T12:58:04;6.80;;;4.70;;
58966;SDS011;44744;51.894;5.080;2023-05-07T12:59:04;8.20;;;4.90;;
58966;SDS011;44744;51.894;5.080;2023-05-07T13:00:09;9.10;;;6.00;;
58966;SDS011;44744;51.894;5.080;2023-05-07T13:01:13;8.80;;;5.60;;
58966;SDS011;44744;51.894;5.080;2023-05-07T13:03:22;6.70;;;5.00;;
58966;SDS011;44744;51.894;5.080;2023-05-07T13:04:30;7.80;;;5.30;;
58966;SDS011;44744;51.894;5.080;2023-05-07T13:05:31;9.00;;;5.10;;
58966;SDS011;44744;51.894;5.080;2023-05-07T13:07:32;13.20;;;4.20;;
58966;SDS011;44744;51.894;5.080;2023-05-07T13:08:36;6.90;;;3.70;;
58966;SDS011;44744;51.894;5.080;2023-05-07T13:09:37;6.20;;;3.90;;
58966;SDS011;44744;51.894;5.080;2023-05-07T13:10:38;10.50;;;4.00;;
58966;SDS011;44744;51.894;5.080;2023-05-07T13:11:38;7.50;;;3.60;;
58966;SDS011;44744;51.894;5.080;2023-05-07T13:12:38;6.50;;;4.00;;
58966;SDS011;44744;51.894;5.080;2023-05-07T13:13:39;7.90;;;4.40;;
58966;SDS011;44744;51.894;5.080;2023-05-07T13:14:50;6.80;;;4.10;;
58966;SDS011;44744;51.894;5.080;2023-05-07T13:15:54;8.30;;;5.10;;
58966;SDS011;44744;51.894;5.080;2023-05-07T13:16:55;9.50;;;6.10;;
58966;SDS011;44744;51.894;5.080;2023-05-07T13:17:55;11.30;;;5.80;;
58966;SDS011;44744;51.894;5.080;2023-05-07T13:18:55;7.80;;;6.20;;
58966;SDS011;44744;51.894;5.080;2023-05-07T13:20:10;7.60;;;6.20;;
58966;SDS011;44744;51.894;5.080;2023-05-07T13:21:13;8.50;;;6.50;;
58966;SDS011;44744;51.894;5.080;2023-05-07T13:22:13;7.60;;;6.40;;
58966;SDS011;44744;51.894;5.080;2023-05-07T13:23:13;11.80;;;7.20;;
58966;SDS011;44744;51.894;5.080;2023-05-07T13:24:14;8.40;;;7.60;;
58966;SDS011;44744;51.894;5.080;2023-05-07T13:25:14;9.10;;;7.70;;
58966;SDS011;44744;51.894;5.080;2023-05-07T13:26:15;10.00;;;7.40;;
58966;SDS011;44744;51.894;5.080;2023-05-07T13:27:15;8.50;;;7.60;;
58966;SDS011;44744;51.894;5.080;2023-05-07T13:28:15;12.30;;;8.10;;
58966;SDS011;44744;51.894;5.080;2023-05-07T13:29:16;10.20;;;7.80;;
58966;SDS011;44744;51.894;5.080;2023-05-07T13:30:17;8.20;;;7.20;;
58966;SDS011;44744;51.894;5.080;2023-05-07T13:31:17;9.00;;;7.80;;
58966;SDS011;44744;51.894;5.080;2023-05-07T13:32:18;11.30;;;8.20;;
58966;SDS011;44744;51.894;5.080;2023-05-07T13:33:18;11.30;;;7.60;;
58966;SDS011;44744;51.894;5.080;2023-05-07T13:34:19;11.20;;;7.30;;
58966;SDS011;44744;51.894;5.080;2023-05-07T13:35:19;8.30;;;7.20;;
58966;SDS011;44744;51.894;5.080;2023-05-07T13:36:19;11.80;;;7.60;;
58966;SDS011;44744;51.894;5.080;2023-05-07T13:37:20;9.10;;;8.00;;
58966;SDS011;44744;51.894;5.080;2023-05-07T13:38:20;10.70;;;7.40;;
58966;SDS011;44744;51.894;5.080;2023-05-07T13:39:20;11.30;;;8.00;;
58966;SDS011;44744;51.894;5.080;2023-05-07T13:40:21;9.50;;;7.60;;
58966;SDS011;44744;51.894;5.080;2023-05-07T13:41:22;8.00;;;6.70;;
58966;SDS011;44744;51.894;5.080;2023-05-07T13:42:22;9.80;;;7.10;;
58966;SDS011;44744;51.894;5.080;2023-05-07T13:43:22;10.20;;;6.90;;
58966;SDS011;44744;51.894;5.080;2023-05-07T13:44:23;10.50;;;6.80;;
58966;SDS011;44744;51.894;5.080;2023-05-07T13:45:23;10.00;;;7.40;;
58966;SDS011;44744;51.894;5.080;2023-05-07T13:46:24;8.00;;;6.80;;
58966;SDS011;44744;51.894;5.080;2023-05-07T13:47:24;8.20;;;6.50;;
58966;SDS011;44744;51.894;5.080;2023-05-07T13:48:24;9.50;;;6.30;;
58966;SDS011;44744;51.894;5.080;2023-05-07T13:49:25;13.40;;;7.20;;
58966;SDS011;44744;51.894;5.080;2023-05-07T13:50:25;9.60;;;6.90;;
58966;SDS011;44744;51.894;5.080;2023-05-07T13:51:25;9.80;;;6.70;;
58966;SDS011;44744;51.894;5.080;2023-05-07T13:52:25;11.10;;;6.30;;
58966;SDS011;44744;51.894;5.080;2023-05-07T13:53:26;8.70;;;6.60;;
58966;SDS011;44744;51.894;5.080;2023-05-07T13:54:26;9.60;;;6.30;;
58966;SDS011;44744;51.894;5.080;2023-05-07T13:55:29;8.90;;;6.00;;
58966;SDS011;44744;51.894;5.080;2023-05-07T13:56:30;8.70;;;5.90;;
58966;SDS011;44744;51.894;5.080;2023-05-07T13:57:30;9.70;;;6.00;;
58966;SDS011;44744;51.894;5.080;2023-05-07T13:58:30;8.30;;;6.10;;
58966;SDS011;44744;51.894;5.080;2023-05-07T13:59:30;9.20;;;5.90;;
58966;SDS011;44744;51.894;5.080;2023-05-07T14:00:32;9.90;;;5.50;;
58966;SDS011;44744;51.894;5.080;2023-05-07T14:01:32;12.10;;;7.60;;
58966;SDS011;44744;51.894;5.080;2023-05-07T14:02:44;10.90;;;7.20;;
58966;SDS011;44744;51.894;5.080;2023-05-07T14:03:53;8.10;;;6.80;;
58966;SDS011;44744;51.894;5.080;2023-05-07T14:04:59;10.60;;;7.00;;
58966;SDS011;44744;51.894;5.080;2023-05-07T14:06:16;8.10;;;7.00;;
58966;SDS011;44744;51.894;5.080;2023-05-07T14:07:28;8.80;;;7.80;;
58966;SDS011;44744;51.894;5.080;2023-05-07T14:08:28;10.40;;;8.00;;
58966;SDS011;44744;51.894;5.080;2023-05-07T14:09:28;9.60;;;7.50;;
58966;SDS011;44744;51.894;5.080;2023-05-07T14:10:29;8.90;;;8.00;;
58966;SDS011;44744;51.894;5.080;2023-05-07T14:11:29;9.50;;;8.50;;
58966;SDS011;44744;51.894;5.080;2023-05-07T14:12:29;10.80;;;8.40;;
58966;SDS011;44744;51.894;5.080;2023-05-07T14:13:31;11.10;;;7.90;;
58966;SDS011;44744;51.894;5.080;2023-05-07T14:14:31;9.60;;;8.10;;
58966;SDS011;44744;51.894;5.080;2023-05-07T14:15:31;10.20;;;8.40;;
58966;SDS011;44744;51.894;5.080;2023-05-07T14:16:32;13.20;;;8.30;;
58966;SDS011;44744;51.894;5.080;2023-05-07T14:17:32;10.10;;;8.20;;
58966;SDS011;44744;51.894;5.080;2023-05-07T14:18:32;11.20;;;8.50;;
58966;SDS011;44744;51.894;5.080;2023-05-07T14:19:33;11.10;;;8.60;;
58966;SDS011;44744;51.894;5.080;2023-05-07T14:20:33;11.90;;;8.60;;
58966;SDS011;44744;51.894;5.080;2023-05-07T14:21:33;9.80;;;8.20;;
58966;SDS011;44744;51.894;5.080;2023-05-07T14:22:34;9.20;;;8.20;;
58966;SDS011;44744;51.894;5.080;2023-05-07T14:23:34;9.60;;;7.90;;
58966;SDS011;44744;51.894;5.080;2023-05-07T14:24:35;10.20;;;8.50;;
58966;SDS011;44744;51.894;5.080;2023-05-07T14:25:36;10.60;;;8.60;;
58966;SDS011;44744;51.894;5.080;2023-05-07T14:26:36;10.80;;;8.60;;
58966;SDS011;44744;51.894;5.080;2023-05-07T14:27:36;9.30;;;8.10;;
58966;SDS011;44744;51.894;5.080;2023-05-07T14:28:37;10.10;;;9.00;;
58966;SDS011;44744;51.894;5.080;2023-05-07T14:29:37;9.70;;;7.90;;
58966;SDS011;44744;51.894;5.080;2023-05-07T14:30:37;9.60;;;8.50;;
58966;SDS011;44744;51.894;5.080;2023-05-07T14:31:38;10.40;;;8.10;;
58966;SDS011;44744;51.894;5.080;2023-05-07T14:32:38;9.60;;;7.60;;
58966;SDS011;44744;51.894;5.080;2023-05-07T14:33:38;9.90;;;7.50;;
58966;SDS011;44744;51.894;5.080;2023-05-07T14:34:39;10.70;;;7.20;;
58966;SDS011;44744;51.894;5.080;2023-05-07T14:35:39;8.80;;;6.00;;
58966;SDS011;44744;51.894;5.080;2023-05-07T14:36:39;10.60;;;5.60;;
58966;SDS011;44744;51.894;5.080;2023-05-07T14:37:40;10.90;;;6.00;;
58966;SDS011;44744;51.894;5.080;2023-05-07T14:38:40;8.70;;;4.80;;
58966;SDS011;44744;51.894;5.080;2023-05-07T14:39:40;8.10;;;4.10;;
58966;SDS011;44744;51.894;5.080;2023-05-07T14:40:41;11.90;;;4.50;;
58966;SDS011;44744;51.894;5.080;2023-05-07T14:41:41;6.30;;;3.20;;
58966;SDS011;44744;51.894;5.080;2023-05-07T14:42:41;7.50;;;3.80;;
58966;SDS011;44744;51.894;5.080;2023-05-07T14:43:42;5.30;;;3.60;;
58966;SDS011;44744;51.894;5.080;2023-05-07T14:44:42;6.20;;;3.50;;
58966;SDS011;44744;51.894;5.080;2023-05-07T14:45:42;6.60;;;3.40;;
58966;SDS011;44744;51.894;5.080;2023-05-07T14:46:42;5.80;;;3.50;;
58966;SDS011;44744;51.894;5.080;2023-05-07T14:47:43;5.90;;;3.20;;
58966;SDS011;44744;51.894;5.080;2023-05-07T14:48:44;7.80;;;3.20;;
58966;SDS011;44744;51.894;5.080;2023-05-07T14:49:44;7.00;;;3.60;;
58966;SDS011;44744;51.894;5.080;2023-05-07T14:51:11;6.40;;;3.10;;
58966;SDS011;44744;51.894;5.080;2023-05-07T14:52:11;8.30;;;3.30;;
58966;SDS011;44744;51.894;5.080;2023-05-07T14:53:12;7.30;;;2.40;;
58966;SDS011;44744;51.894;5.080;2023-05-07T14:54:12;3.20;;;2.30;;
58966;SDS011;44744;51.894;5.080;2023-05-07T14:55:13;4.80;;;2.80;;
58966;SDS011;44744;51.894;5.080;2023-05-07T14:56:14;6.60;;;2.70;;
58966;SDS011;44744;51.894;5.080;2023-05-07T14:57:14;7.10;;;2.90;;
58966;SDS011;44744;51.894;5.080;2023-05-07T14:58:14;9.50;;;3.60;;
58966;SDS011;44744;51.894;5.080;2023-05-07T14:59:15;7.50;;;2.70;;
58966;SDS011;44744;51.894;5.080;2023-05-07T15:00:15;6.10;;;3.10;;
58966;SDS011;44744;51.894;5.080;2023-05-07T15:01:15;6.80;;;3.50;;
58966;SDS011;44744;51.894;5.080;2023-05-07T15:02:16;5.70;;;3.50;;
58966;SDS011;44744;51.894;5.080;2023-05-07T15:03:16;6.30;;;3.40;;
58966;SDS011;44744;51.894;5.080;2023-05-07T15:04:16;5.80;;;3.70;;
58966;SDS011;44744;51.894;5.080;2023-05-07T15:05:17;5.20;;;3.50;;
58966;SDS011;44744;51.894;5.080;2023-05-07T15:06:17;4.60;;;3.10;;
58966;SDS011;44744;51.894;5.080;2023-05-07T15:07:17;6.90;;;3.30;;
58966;SDS011;44744;51.894;5.080;2023-05-07T15:08:18;6.10;;;3.30;;
58966;SDS011;44744;51.894;5.080;2023-05-07T15:09:18;5.60;;;3.30;;
58966;SDS011;44744;51.894;5.080;2023-05-07T15:10:18;5.30;;;3.60;;
58966;SDS011;44744;51.894;5.080;2023-05-07T15:11:19;7.40;;;4.10;;
58966;SDS011;44744;51.894;5.080;2023-05-07T15:12:19;7.20;;;3.80;;
58966;SDS011;44744;51.894;5.080;2023-05-07T15:13:19;11.70;;;4.40;;
58966;SDS011;44744;51.894;5.080;2023-05-07T15:14:21;5.90;;;4.30;;
58966;SDS011;44744;51.894;5.080;2023-05-07T15:15:21;8.80;;;4.80;;
58966;SDS011;44744;51.894;5.080;2023-05-07T15:16:21;6.70;;;4.70;;
58966;SDS011;44744;51.894;5.080;2023-05-07T15:17:22;5.90;;;4.30;;
58966;SDS011;44744;51.894;5.080;2023-05-07T15:18:22;6.40;;;4.40;;
58966;SDS011;44744;51.894;5.080;2023-05-07T15:19:23;7.80;;;5.10;;
58966;SDS011;44744;51.894;5.080;2023-05-07T15:20:23;8.10;;;4.90;;
58966;SDS011;44744;51.894;5.080;2023-05-07T15:21:24;6.20;;;4.60;;
58966;SDS011;44744;51.894;5.080;2023-05-07T15:22:24;8.70;;;5.70;;
58966;SDS011;44744;51.894;5.080;2023-05-07T15:23:24;6.50;;;4.60;;
58966;SDS011;44744;51.894;5.080;2023-05-07T15:24:25;8.70;;;4.60;;
58966;SDS011;44744;51.894;5.080;2023-05-07T15:25:25;8.30;;;4.50;;
58966;SDS011;44744;51.894;5.080;2023-05-07T15:26:26;5.50;;;4.40;;
58966;SDS011;44744;51.894;5.080;2023-05-07T15:27:26;6.50;;;4.80;;
58966;SDS011;44744;51.894;5.080;2023-05-07T15:28:27;6.70;;;4.40;;
58966;SDS011;44744;51.894;5.080;2023-05-07T15:29:27;6.90;;;4.40;;
58966;SDS011;44744;51.894;5.080;2023-05-07T15:30:27;6.40;;;4.90;;
58966;SDS011;44744;51.894;5.080;2023-05-07T15:31:28;7.50;;;4.50;;
58966;SDS011;44744;51.894;5.080;2023-05-07T15:32:28;5.90;;;4.90;;
58966;SDS011;44744;51.894;5.080;2023-05-07T15:33:28;7.70;;;4.90;;
58966;SDS011;44744;51.894;5.080;2023-05-07T15:34:29;6.00;;;4.50;;
58966;SDS011;44744;51.894;5.080;2023-05-07T15:35:29;5.40;;;4.00;;
58966;SDS011;44744;51.894;5.080;2023-05-07T15:36:29;5.10;;;4.20;;
58966;SDS011;44744;51.894;5.080;2023-05-07T15:37:32;6.00;;;4.10;;
58966;SDS011;44744;51.894;5.080;2023-05-07T15:38:33;7.30;;;4.00;;
58966;SDS011;44744;51.894;5.080;2023-05-07T15:39:34;6.40;;;3.90;;
58966;SDS011;44744;51.894;5.080;2023-05-07T15:40:35;4.50;;;3.80;;
58966;SDS011;44744;51.894;5.080;2023-05-07T15:41:35;5.40;;;3.70;;
58966;SDS011;44744;51.894;5.080;2023-05-07T15:42:35;5.20;;;4.00;;
58966;SDS011;44744;51.894;5.080;2023-05-07T15:43:43;7.80;;;4.20;;
58966;SDS011;44744;51.894;5.080;2023-05-07T15:44:46;6.20;;;4.20;;
58966;SDS011;44744;51.894;5.080;2023-05-07T15:45:46;5.80;;;4.50;;
58966;SDS011;44744;51.894;5.080;2023-05-07T15:48:29;6.20;;;4.50;;
58966;SDS011;44744;51.894;5.080;2023-05-07T15:49:30;7.80;;;5.20;;
58966;SDS011;44744;51.894;5.080;2023-05-07T15:50:30;6.60;;;5.50;;
58966;SDS011;44744;51.894;5.080;2023-05-07T15:51:30;6.10;;;5.50;;
58966;SDS011;44744;51.894;5.080;2023-05-07T15:52:31;6.80;;;5.40;;
58966;SDS011;44744;51.894;5.080;2023-05-07T15:53:31;7.00;;;6.00;;
58966;SDS011;44744;51.894;5.080;2023-05-07T15:54:31;8.90;;;6.80;;
58966;SDS011;44744;51.894;5.080;2023-05-07T15:55:32;13.60;;;8.60;;
58966;SDS011;44744;51.894;5.080;2023-05-07T15:56:32;9.20;;;7.90;;
58966;SDS011;44744;51.894;5.080;2023-05-07T15:57:32;11.00;;;8.90;;
58966;SDS011;44744;51.894;5.080;2023-05-07T15:58:33;13.60;;;9.70;;
58966;SDS011;44744;51.894;5.080;2023-05-07T15:59:34;13.60;;;10.10;;
58966;SDS011;44744;51.894;5.080;2023-05-07T16:00:34;14.40;;;9.80;;
58966;SDS011;44744;51.894;5.080;2023-05-07T16:01:34;11.50;;;9.30;;
58966;SDS011;44744;51.894;5.080;2023-05-07T16:02:35;13.20;;;10.40;;
58966;SDS011;44744;51.894;5.080;2023-05-07T16:03:35;14.00;;;9.40;;
58966;SDS011;44744;51.894;5.080;2023-05-07T16:04:36;10.90;;;9.20;;
58966;SDS011;44744;51.894;5.080;2023-05-07T16:05:37;13.70;;;10.40;;
58966;SDS011;44744;51.894;5.080;2023-05-07T16:06:39;10.70;;;9.20;;
58966;SDS011;44744;51.894;5.080;2023-05-07T16:07:46;9.90;;;8.70;;
58966;SDS011;44744;51.894;5.080;2023-05-07T16:08:49;9.90;;;7.80;;
58966;SDS011;44744;51.894;5.080;2023-05-07T16:10:00;12.20;;;7.40;;
58966;SDS011;44744;51.894;5.080;2023-05-07T16:11:00;9.70;;;7.10;;
58966;SDS011;44744;51.894;5.080;2023-05-07T16:12:00;11.70;;;7.00;;
58966;SDS011;44744;51.894;5.080;2023-05-07T16:13:01;10.60;;;7.10;;
58966;SDS011;44744;51.894;5.080;2023-05-07T16:15:03;10.80;;;7.50;;
58966;SDS011;44744;51.894;5.080;2023-05-07T16:16:04;9.00;;;6.50;;
58966;SDS011;44744;51.894;5.080;2023-05-07T16:17:12;10.80;;;6.70;;
58966;SDS011;44744;51.894;5.080;2023-05-07T16:18:21;7.90;;;5.90;;
58966;SDS011;44744;51.894;5.080;2023-05-07T16:19:22;7.10;;;5.20;;
58966;SDS011;44744;51.894;5.080;2023-05-07T16:20:25;6.00;;;4.80;;
58966;SDS011;44744;51.894;5.080;2023-05-07T16:21:26;6.80;;;5.00;;
58966;SDS011;44744;51.894;5.080;2023-05-07T16:22:27;6.70;;;4.80;;
58966;SDS011;44744;51.894;5.080;2023-05-07T16:23:27;6.60;;;5.10;;
58966;SDS011;44744;51.894;5.080;2023-05-07T16:24:27;6.60;;;4.80;;
58966;SDS011;44744;51.894;5.080;2023-05-07T16:25:28;6.90;;;5.10;;
58966;SDS011;44744;51.894;5.080;2023-05-07T16:26:28;6.10;;;4.60;;
58966;SDS011;44744;51.894;5.080;2023-05-07T16:27:28;5.50;;;4.70;;
58966;SDS011;44744;51.894;5.080;2023-05-07T16:28:29;6.40;;;4.80;;
58966;SDS011;44744;51.894;5.080;2023-05-07T16:29:29;7.50;;;4.70;;
58966;SDS011;44744;51.894;5.080;2023-05-07T16:30:30;7.80;;;5.10;;
58966;SDS011;44744;51.894;5.080;2023-05-07T16:31:30;7.00;;;4.50;;
58966;SDS011;44744;51.894;5.080;2023-05-07T16:32:30;7.40;;;4.90;;
58966;SDS011;44744;51.894;5.080;2023-05-07T16:33:31;7.40;;;5.10;;
58966;SDS011;44744;51.894;5.080;2023-05-07T16:34:32;7.60;;;4.60;;
58966;SDS011;44744;51.894;5.080;2023-05-07T16:35:33;6.40;;;4.90;;
58966;SDS011;44744;51.894;5.080;2023-05-07T16:36:33;7.20;;;4.60;;
58966;SDS011;44744;51.894;5.080;2023-05-07T16:37:34;7.00;;;4.80;;
58966;SDS011;44744;51.894;5.080;2023-05-07T16:38:34;7.30;;;5.00;;
58966;SDS011;44744;51.894;5.080;2023-05-07T16:39:34;6.10;;;4.30;;
58966;SDS011;44744;51.894;5.080;2023-05-07T16:40:36;6.10;;;4.20;;
58966;SDS011;44744;51.894;5.080;2023-05-07T16:41:37;6.60;;;4.30;;
58966;SDS011;44744;51.894;5.080;2023-05-07T16:42:38;8.20;;;4.20;;
58966;SDS011;44744;51.894;5.080;2023-05-07T16:43:38;5.90;;;4.30;;
58966;SDS011;44744;51.894;5.080;2023-05-07T16:44:39;8.60;;;4.80;;
58966;SDS011;44744;51.894;5.080;2023-05-07T16:45:39;6.50;;;4.30;;
58966;SDS011;44744;51.894;5.080;2023-05-07T16:46:39;5.40;;;4.40;;
58966;SDS011;44744;51.894;5.080;2023-05-07T16:47:39;6.70;;;4.10;;
58966;SDS011;44744;51.894;5.080;2023-05-07T16:48:40;4.40;;;3.90;;
58966;SDS011;44744;51.894;5.080;2023-05-07T16:49:40;6.90;;;4.90;;
58966;SDS011;44744;51.894;5.080;2023-05-07T16:50:41;5.70;;;4.60;;
58966;SDS011;44744;51.894;5.080;2023-05-07T16:51:41;8.50;;;4.80;;
58966;SDS011;44744;51.894;5.080;2023-05-07T16:52:42;5.90;;;4.20;;
58966;SDS011;44744;51.894;5.080;2023-05-07T16:53:42;7.60;;;4.20;;
58966;SDS011;44744;51.894;5.080;2023-05-07T16:54:42;6.00;;;3.90;;
58966;SDS011;44744;51.894;5.080;2023-05-07T16:55:43;6.90;;;4.00;;
58966;SDS011;44744;51.894;5.080;2023-05-07T16:56:43;5.70;;;3.90;;
58966;SDS011;44744;51.894;5.080;2023-05-07T16:57:43;6.00;;;3.60;;
58966;SDS011;44744;51.894;5.080;2023-05-07T16:58:44;5.40;;;3.60;;
58966;SDS011;44744;51.894;5.080;2023-05-07T16:59:44;6.70;;;4.10;;
58966;SDS011;44744;51.894;5.080;2023-05-07T17:00:44;7.10;;;4.00;;
58966;SDS011;44744;51.894;5.080;2023-05-07T17:01:45;6.10;;;4.10;;
58966;SDS011;44744;51.894;5.080;2023-05-07T17:02:46;7.30;;;4.70;;
58966;SDS011;44744;51.894;5.080;2023-05-07T17:03:46;8.10;;;4.70;;
58966;SDS011;44744;51.894;5.080;2023-05-07T17:04:46;5.80;;;4.10;;
58966;SDS011;44744;51.894;5.080;2023-05-07T17:05:47;5.50;;;4.10;;
58966;SDS011;44744;51.894;5.080;2023-05-07T17:06:47;6.20;;;4.40;;
58966;SDS011;44744;51.894;5.080;2023-05-07T17:07:47;6.30;;;4.00;;
58966;SDS011;44744;51.894;5.080;2023-05-07T17:08:48;5.60;;;3.70;;
58966;SDS011;44744;51.894;5.080;2023-05-07T17:09:48;6.90;;;4.10;;
58966;SDS011;44744;51.894;5.080;2023-05-07T17:10:48;6.50;;;4.10;;
58966;SDS011;44744;51.894;5.080;2023-05-07T17:11:48;6.50;;;4.40;;
58966;SDS011;44744;51.894;5.080;2023-05-07T17:12:49;5.90;;;4.40;;
58966;SDS011;44744;51.894;5.080;2023-05-07T17:13:50;6.00;;;3.90;;
58966;SDS011;44744;51.894;5.080;2023-05-07T17:14:50;6.10;;;4.30;;
58966;SDS011;44744;51.894;5.080;2023-05-07T17:15:50;7.50;;;4.30;;
58966;SDS011;44744;51.894;5.080;2023-05-07T17:16:51;5.60;;;4.00;;
58966;SDS011;44744;51.894;5.080;2023-05-07T17:17:51;7.30;;;4.30;;
58966;SDS011;44744;51.894;5.080;2023-05-07T17:18:51;5.90;;;4.00;;
58966;SDS011;44744;51.894;5.080;2023-05-07T17:19:51;5.30;;;3.70;;
58966;SDS011;44744;51.894;5.080;2023-05-07T17:20:52;6.00;;;3.50;;
58966;SDS011;44744;51.894;5.080;2023-05-07T17:21:52;7.00;;;3.30;;
58966;SDS011;44744;51.894;5.080;2023-05-07T17:22:52;5.30;;;3.00;;
58966;SDS011;44744;51.894;5.080;2023-05-07T17:23:54;5.40;;;3.00;;
58966;SDS011;44744;51.894;5.080;2023-05-07T17:24:55;4.10;;;2.70;;
58966;SDS011;44744;51.894;5.080;2023-05-07T17:25:56;4.70;;;2.50;;
58966;SDS011;44744;51.894;5.080;2023-05-07T17:26:56;4.40;;;2.30;;
58966;SDS011;44744;51.894;5.080;2023-05-07T17:27:56;4.80;;;2.70;;
58966;SDS011;44744;51.894;5.080;2023-05-07T17:28:57;5.60;;;2.30;;
58966;SDS011;44744;51.894;5.080;2023-05-07T17:29:57;6.40;;;2.60;;
58966;SDS011;44744;51.894;5.080;2023-05-07T17:30:57;3.40;;;2.30;;
58966;SDS011;44744;51.894;5.080;2023-05-07T17:31:58;3.30;;;2.20;;
58966;SDS011;44744;51.894;5.080;2023-05-07T17:32:58;4.20;;;2.50;;
58966;SDS011;44744;51.894;5.080;2023-05-07T17:33:58;4.60;;;2.60;;